createdAt,value
2018-11-02T00:00:41.360Z,0.00
2018-11-02T00:01:41.349Z,0.00
2018-11-02T00:02:41.401Z,0.00
2018-11-02T00:03:41.335Z,0.00
2018-11-02T00:04:41.325Z,0.00
2018-11-02T00:05:41.305Z,0.00
2018-11-02T00:06:41.296Z,0.00
2018-11-02T00:07:41.284Z,0.00
2018-11-02T00:08:41.269Z,0.00
2018-11-02T00:09:41.272Z,0.00
2018-11-02T00:10:41.248Z,0.00
2018-11-02T00:11:41.237Z,0.00
2018-11-02T00:12:41.224Z,0.00
2018-11-02T00:13:41.212Z,0.00
2018-11-02T00:14:41.229Z,0.00
2018-11-02T00:15:41.191Z,0.00
2018-11-02T00:16:41.181Z,0.00
2018-11-02T00:17:41.170Z,0.00
2018-11-02T00:18:41.157Z,0.00
2018-11-02T00:19:41.162Z,0.00
2018-11-02T00:20:41.139Z,0.00
2018-11-02T00:21:41.125Z,0.00
2018-11-02T00:22:41.114Z,0.00
2018-11-02T00:23:41.101Z,0.00
2018-11-02T00:24:41.102Z,0.00
2018-11-02T00:25:41.080Z,0.00
2018-11-02T00:26:41.072Z,0.00
2018-11-02T00:27:41.062Z,0.00
2018-11-02T00:28:41.048Z,0.00
2018-11-02T00:29:41.069Z,0.00
2018-11-02T00:30:41.030Z,0.00
2018-11-02T00:31:41.074Z,0.00
2018-11-02T00:32:41.007Z,0.00
2018-11-02T00:33:40.997Z,0.00
2018-11-02T00:34:40.988Z,0.00
2018-11-02T00:35:41.146Z,0.00
2018-11-02T00:36:40.959Z,0.00
2018-11-02T00:37:40.951Z,0.00
2018-11-02T00:38:40.939Z,0.00
2018-11-02T00:39:40.924Z,0.00
2018-11-02T00:40:40.923Z,0.00
2018-11-02T00:41:40.902Z,0.00
2018-11-02T00:42:40.894Z,0.00
2018-11-02T00:43:40.893Z,0.00
2018-11-02T00:44:40.870Z,0.00
2018-11-02T00:45:40.871Z,0.00
2018-11-02T00:46:40.865Z,0.00
2018-11-02T00:47:40.837Z,0.00
2018-11-02T00:48:40.824Z,0.00
2018-11-02T00:49:40.815Z,0.00
2018-11-02T00:50:40.811Z,0.00
2018-11-02T00:51:40.790Z,0.00
2018-11-02T00:52:40.779Z,0.00
2018-11-02T00:53:40.769Z,0.00
2018-11-02T00:54:40.761Z,0.00
2018-11-02T00:55:40.760Z,0.00
2018-11-02T00:56:40.734Z,0.00
2018-11-02T00:57:40.726Z,0.00
2018-11-02T00:58:40.762Z,0.00
2018-11-02T00:59:40.703Z,0.00
2018-11-02T01:00:40.706Z,0.00
2018-11-02T01:01:40.680Z,0.00
2018-11-02T01:02:40.669Z,0.00
2018-11-02T01:03:40.670Z,0.00
2018-11-02T01:04:40.654Z,0.00
2018-11-02T01:05:40.655Z,0.00
2018-11-02T01:06:40.631Z,0.00
2018-11-02T01:07:40.615Z,0.00
2018-11-02T01:08:40.602Z,0.00
2018-11-02T01:09:40.591Z,0.00
2018-11-02T01:10:40.621Z,0.00
2018-11-02T01:11:40.569Z,0.00
2018-11-02T01:12:40.557Z,0.00
2018-11-02T01:13:40.547Z,0.00
2018-11-02T01:14:40.535Z,0.00
2018-11-02T01:15:40.542Z,0.00
2018-11-02T01:16:40.710Z,0.00
2018-11-02T01:17:40.502Z,0.00
2018-11-02T01:18:40.492Z,0.00
2018-11-02T01:19:40.480Z,0.00
2018-11-02T01:20:40.470Z,0.00
2018-11-02T01:21:40.469Z,0.00
2018-11-02T01:22:40.448Z,0.00
2018-11-02T01:23:40.437Z,0.00
2018-11-02T01:24:40.427Z,0.00
2018-11-02T01:25:40.414Z,0.00
2018-11-02T01:26:40.414Z,0.00
2018-11-02T01:27:40.408Z,0.00
2018-11-02T01:28:40.388Z,0.00
2018-11-02T01:29:40.370Z,0.00
2018-11-02T01:30:40.363Z,0.00
2018-11-02T01:31:40.359Z,0.00
2018-11-02T01:32:40.340Z,0.00
2018-11-02T01:33:40.331Z,0.00
2018-11-02T01:34:40.315Z,0.00
2018-11-02T01:35:40.307Z,0.00
2018-11-02T01:36:40.304Z,0.00
2018-11-02T01:37:40.283Z,0.00
2018-11-02T01:38:40.273Z,0.00
2018-11-02T01:39:40.265Z,0.00
2018-11-02T01:40:40.257Z,0.00
2018-11-02T01:41:40.258Z,0.00
2018-11-02T01:42:40.237Z,0.00
2018-11-02T01:43:40.218Z,0.00
2018-11-02T01:44:40.204Z,0.00
2018-11-02T01:45:40.193Z,0.00
2018-11-02T01:46:40.219Z,0.00
2018-11-02T01:47:40.171Z,0.00
2018-11-02T01:48:40.160Z,0.00
2018-11-02T01:49:40.148Z,0.00
2018-11-02T01:50:40.139Z,0.00
2018-11-02T01:51:40.142Z,0.00
2018-11-02T01:52:40.122Z,0.00
2018-11-02T01:53:40.106Z,0.00
2018-11-02T01:54:40.097Z,0.00
2018-11-02T01:55:40.088Z,0.00
2018-11-02T01:56:40.085Z,0.00
2018-11-02T01:57:40.064Z,0.00
2018-11-02T01:58:40.053Z,0.00
2018-11-02T01:59:40.048Z,0.00
2018-11-02T02:00:40.031Z,0.00
2018-11-02T02:01:40.032Z,0.00
2018-11-02T02:02:40.013Z,0.00
2018-11-02T02:03:39.996Z,0.00
2018-11-02T02:04:39.984Z,0.00
2018-11-02T02:05:39.976Z,0.00
2018-11-02T02:06:39.974Z,0.00
2018-11-02T02:07:39.955Z,0.00
2018-11-02T02:08:39.959Z,0.00
2018-11-02T02:09:39.931Z,0.00
2018-11-02T02:10:39.918Z,0.00
2018-11-02T02:11:39.931Z,0.00
2018-11-02T02:12:39.919Z,0.00
2018-11-02T02:13:39.894Z,0.00
2018-11-02T02:14:39.902Z,0.00
2018-11-02T02:15:39.881Z,0.00
2018-11-02T02:16:39.854Z,0.00
2018-11-02T02:17:39.854Z,0.00
2018-11-02T02:18:39.831Z,0.00
2018-11-02T02:19:39.826Z,0.00
2018-11-02T02:20:39.808Z,0.00
2018-11-02T02:21:39.795Z,0.00
2018-11-02T02:22:39.809Z,0.00
2018-11-02T02:23:39.776Z,0.00
2018-11-02T02:24:39.770Z,0.00
2018-11-02T02:25:39.763Z,0.00
2018-11-02T02:26:39.745Z,0.00
2018-11-02T02:27:39.741Z,0.00
2018-11-02T02:28:39.720Z,0.00
2018-11-02T02:29:39.714Z,0.00
2018-11-02T02:30:39.700Z,0.00
2018-11-02T02:31:39.703Z,0.00
2018-11-02T02:32:39.688Z,0.00
2018-11-02T02:33:39.665Z,0.00
2018-11-02T02:34:39.656Z,0.00
2018-11-02T02:35:39.651Z,0.00
2018-11-02T02:36:39.636Z,0.00
2018-11-02T02:37:39.641Z,0.00
2018-11-02T02:38:39.612Z,0.00
2018-11-02T02:39:39.602Z,0.00
2018-11-02T02:40:39.603Z,0.00
2018-11-02T02:41:39.578Z,0.00
2018-11-02T02:42:39.584Z,0.00
2018-11-02T02:43:39.563Z,0.00
2018-11-02T02:44:39.547Z,0.00
2018-11-02T02:45:39.535Z,0.00
2018-11-02T02:46:39.526Z,0.00
2018-11-02T02:47:39.591Z,0.00
2018-11-02T02:48:39.499Z,0.00
2018-11-02T02:49:39.489Z,0.00
2018-11-02T02:50:39.476Z,0.00
2018-11-02T02:51:39.466Z,0.00
2018-11-02T02:52:39.455Z,0.00
2018-11-02T02:53:39.476Z,0.00
2018-11-02T02:54:39.434Z,0.00
2018-11-02T02:55:39.436Z,0.00
2018-11-02T02:56:39.411Z,0.00
2018-11-02T02:57:39.399Z,0.00
2018-11-02T02:58:39.404Z,0.00
2018-11-02T02:59:39.380Z,0.00
2018-11-02T03:00:39.367Z,0.00
2018-11-02T03:01:39.357Z,0.00
2018-11-02T03:02:39.346Z,0.00
2018-11-02T03:03:39.347Z,0.00
2018-11-02T03:04:39.326Z,0.00
2018-11-02T03:05:39.313Z,0.00
2018-11-02T03:06:39.303Z,0.00
2018-11-02T03:07:39.294Z,0.00
2018-11-02T03:08:39.289Z,0.00
2018-11-02T03:09:39.267Z,0.00
2018-11-02T03:10:39.360Z,0.00
2018-11-02T03:11:39.250Z,0.00
2018-11-02T03:12:39.237Z,0.00
2018-11-02T03:13:39.237Z,0.00
2018-11-02T03:14:39.213Z,0.00
2018-11-02T03:15:39.201Z,0.00
2018-11-02T03:16:39.194Z,0.00
2018-11-02T03:17:39.190Z,0.00
2018-11-02T03:18:39.189Z,0.00
2018-11-02T03:19:39.162Z,0.00
2018-11-02T03:20:39.172Z,0.00
2018-11-02T03:21:39.135Z,0.00
2018-11-02T03:22:39.219Z,0.00
2018-11-02T03:23:39.132Z,0.00
2018-11-02T03:24:39.103Z,0.00
2018-11-02T03:25:41.595Z,0.00
2018-11-02T03:26:39.080Z,0.00
2018-11-02T03:27:39.072Z,0.00
2018-11-02T03:28:39.069Z,0.00
2018-11-02T03:29:39.049Z,0.00
2018-11-02T03:32:24.065Z,0.00
2018-11-02T03:32:47.750Z,0.00
2018-11-02T03:33:47.747Z,0.00
2018-11-02T03:34:47.746Z,0.00
2018-11-02T03:35:47.717Z,0.00
2018-11-02T03:36:47.704Z,0.00
2018-11-02T03:37:47.692Z,0.00
2018-11-02T03:38:47.694Z,0.00
2018-11-02T03:39:47.701Z,0.00
2018-11-02T03:40:47.665Z,0.00
2018-11-02T03:41:47.652Z,0.00
2018-11-02T03:42:47.639Z,0.00
2018-11-02T03:43:47.642Z,0.00
2018-11-02T03:44:47.617Z,0.00
2018-11-02T03:45:47.605Z,0.00
2018-11-02T03:46:47.596Z,0.00
2018-11-02T03:47:47.595Z,0.00
2018-11-02T03:48:47.595Z,0.00
2018-11-02T03:49:47.586Z,0.00
2018-11-02T03:50:47.548Z,0.00
2018-11-02T03:51:47.539Z,0.00
2018-11-02T03:52:47.528Z,0.00
2018-11-02T03:53:47.530Z,0.00
2018-11-02T03:54:47.532Z,0.00
2018-11-02T03:55:47.658Z,0.00
2018-11-02T03:56:47.529Z,0.00
2018-11-02T03:57:47.471Z,0.00
2018-11-02T03:58:47.472Z,0.00
2018-11-02T03:59:47.449Z,0.00
2018-11-02T04:00:47.440Z,0.00
2018-11-02T04:01:47.429Z,0.00
2018-11-02T04:02:47.415Z,0.00
2018-11-02T04:03:47.421Z,0.00
2018-11-02T04:04:47.408Z,0.00
2018-11-02T04:05:47.383Z,0.00
2018-11-02T04:06:47.372Z,0.00
2018-11-02T04:07:47.362Z,0.00
2018-11-02T04:08:47.363Z,0.00
2018-11-02T04:09:47.468Z,0.00
2018-11-02T04:10:47.332Z,0.00
2018-11-02T04:11:47.317Z,0.00
2018-11-02T04:12:47.348Z,0.00
2018-11-02T04:13:47.304Z,0.00
2018-11-02T04:14:47.285Z,0.00
2018-11-02T04:15:47.277Z,0.00
2018-11-02T04:16:47.262Z,0.00
2018-11-02T04:17:47.251Z,0.00
2018-11-02T04:18:47.266Z,0.00
2018-11-02T04:19:47.232Z,0.00
2018-11-02T04:20:47.217Z,0.00
2018-11-02T04:21:47.210Z,0.00
2018-11-02T04:22:47.209Z,0.00
2018-11-02T04:23:47.190Z,0.00
2018-11-02T04:24:47.184Z,0.00
2018-11-02T04:25:47.164Z,0.00
2018-11-02T04:26:47.160Z,0.00
2018-11-02T04:27:47.141Z,0.00
2018-11-02T04:28:47.128Z,0.00
2018-11-02T04:29:47.129Z,0.00
2018-11-02T04:30:47.271Z,0.00
2018-11-02T04:31:47.109Z,0.00
2018-11-02T04:32:47.088Z,0.00
2018-11-02T04:33:47.074Z,0.00
2018-11-02T04:34:47.077Z,0.00
2018-11-02T04:35:47.066Z,0.00
2018-11-02T04:36:47.047Z,0.00
2018-11-02T04:37:47.032Z,0.00
2018-11-02T04:38:47.028Z,0.00
2018-11-02T04:39:47.022Z,0.00
2018-11-02T04:40:46.999Z,0.00
2018-11-02T04:41:46.985Z,0.00
2018-11-02T04:42:46.977Z,0.00
2018-11-02T04:43:46.964Z,0.00
2018-11-02T04:44:46.965Z,0.00
2018-11-02T04:45:46.944Z,0.00
2018-11-02T04:46:46.932Z,0.00
2018-11-02T04:47:46.920Z,0.00
2018-11-02T04:48:46.918Z,0.00
2018-11-02T04:49:46.914Z,0.00
2018-11-02T04:50:46.912Z,0.00
2018-11-02T04:51:46.875Z,0.00
2018-11-02T04:52:46.865Z,0.00
2018-11-02T04:53:46.855Z,0.00
2018-11-02T04:54:46.859Z,0.00
2018-11-02T04:55:46.832Z,0.00
2018-11-02T04:56:46.824Z,0.00
2018-11-02T04:57:46.814Z,0.00
2018-11-02T04:58:46.800Z,0.00
2018-11-02T04:59:46.801Z,0.00
2018-11-02T05:00:46.777Z,0.00
2018-11-02T05:01:46.764Z,0.00
2018-11-02T05:02:46.757Z,0.00
2018-11-02T05:03:46.744Z,0.00
2018-11-02T05:04:46.760Z,0.00
2018-11-02T05:05:46.724Z,0.00
2018-11-02T05:06:46.712Z,0.00
2018-11-02T05:07:46.702Z,0.00
2018-11-02T05:08:46.705Z,0.00
2018-11-02T05:09:46.714Z,0.00
2018-11-02T05:10:46.676Z,0.00
2018-11-02T05:11:46.658Z,0.00
2018-11-02T05:12:46.642Z,0.00
2018-11-02T05:13:46.634Z,0.00
2018-11-02T05:14:46.626Z,0.00
2018-11-02T05:15:46.636Z,0.00
2018-11-02T05:16:46.603Z,0.00
2018-11-02T05:17:46.589Z,0.00
2018-11-02T05:18:46.577Z,0.00
2018-11-02T05:19:46.570Z,0.00
2018-11-02T05:20:46.570Z,0.00
2018-11-02T05:21:46.545Z,0.00
2018-11-02T05:22:46.533Z,0.00
2018-11-02T05:23:46.528Z,0.00
2018-11-02T05:24:46.512Z,0.00
2018-11-02T05:25:46.514Z,0.00
2018-11-02T05:26:46.491Z,0.00
2018-11-02T05:27:46.480Z,0.00
2018-11-02T05:28:46.473Z,0.00
2018-11-02T05:29:46.466Z,0.00
2018-11-02T05:30:46.554Z,0.00
2018-11-02T05:31:46.456Z,0.00
2018-11-02T05:32:46.427Z,0.00
2018-11-02T05:33:46.418Z,0.00
2018-11-02T05:34:46.427Z,0.00
2018-11-02T05:35:46.443Z,0.00
2018-11-02T05:36:46.411Z,0.00
2018-11-02T05:37:46.367Z,0.00
2018-11-02T05:38:46.356Z,0.00
2018-11-02T05:39:46.372Z,0.00
2018-11-02T05:40:46.354Z,0.00
2018-11-02T05:41:46.345Z,0.00
2018-11-02T05:42:46.321Z,0.00
2018-11-02T05:43:46.314Z,0.00
2018-11-02T05:44:46.291Z,0.00
2018-11-02T05:45:46.323Z,0.00
2018-11-02T05:46:46.271Z,0.00
2018-11-02T05:47:46.268Z,0.00
2018-11-02T05:48:46.252Z,0.00
2018-11-02T05:49:46.237Z,0.00
2018-11-02T05:50:46.245Z,0.00
2018-11-02T05:51:46.227Z,0.00
2018-11-02T05:52:46.209Z,4.00
2018-11-02T05:53:46.205Z,4.00
2018-11-02T05:54:46.222Z,0.00
2018-11-02T05:55:46.175Z,4.00
2018-11-02T05:56:46.176Z,4.00
2018-11-02T05:57:46.160Z,4.00
2018-11-02T05:58:46.137Z,4.00
2018-11-02T05:59:46.132Z,4.00
2018-11-02T06:00:46.116Z,8.00
2018-11-02T06:01:46.292Z,8.00
2018-11-02T06:02:46.092Z,8.00
2018-11-02T06:03:46.081Z,12.00
2018-11-02T06:04:46.083Z,12.00
2018-11-02T06:05:46.074Z,12.00
2018-11-02T06:06:46.090Z,16.00
2018-11-02T06:07:46.144Z,16.00
2018-11-02T06:08:46.026Z,20.00
2018-11-02T06:09:46.015Z,24.00
2018-11-02T06:10:46.053Z,24.00
2018-11-02T06:11:46.007Z,28.00
2018-11-02T06:12:45.981Z,32.00
2018-11-02T06:13:45.972Z,32.00
2018-11-02T06:14:45.964Z,36.00
2018-11-02T06:15:45.949Z,40.00
2018-11-02T06:16:46.020Z,44.00
2018-11-02T06:17:45.946Z,48.00
2018-11-02T06:18:45.922Z,52.00
2018-11-02T06:19:45.960Z,56.00
2018-11-02T06:20:45.912Z,60.00
2018-11-02T06:21:45.925Z,64.00
2018-11-02T06:22:45.876Z,72.00
2018-11-02T06:23:45.860Z,76.00
2018-11-02T06:24:45.848Z,80.00
2018-11-02T06:25:45.837Z,88.00
2018-11-02T06:26:45.837Z,96.00
2018-11-02T06:27:45.816Z,100.00
2018-11-02T06:28:45.806Z,108.00
2018-11-02T06:29:45.792Z,112.00
2018-11-02T06:30:45.911Z,120.00
2018-11-02T06:31:45.798Z,128.00
2018-11-02T06:32:45.792Z,136.00
2018-11-02T06:33:45.764Z,148.00
2018-11-02T06:34:45.751Z,156.00
2018-11-02T06:35:45.725Z,168.00
2018-11-02T06:36:45.725Z,176.00
2018-11-02T06:37:45.704Z,184.00
2018-11-02T06:38:45.721Z,184.00
2018-11-02T06:39:45.683Z,192.00
2018-11-02T06:40:45.672Z,200.00
2018-11-02T06:41:45.694Z,212.00
2018-11-02T06:42:45.647Z,220.00
2018-11-02T06:43:45.637Z,232.00
2018-11-02T06:44:45.675Z,240.00
2018-11-02T06:45:45.616Z,248.00
2018-11-02T06:46:45.617Z,260.00
2018-11-02T06:47:45.594Z,268.00
2018-11-02T06:48:45.581Z,276.00
2018-11-02T06:49:45.577Z,284.00
2018-11-02T06:50:45.584Z,300.00
2018-11-02T06:51:45.581Z,308.00
2018-11-02T06:52:45.537Z,316.00
2018-11-02T06:53:45.525Z,328.00
2018-11-02T06:54:45.515Z,332.00
2018-11-02T06:55:45.508Z,332.00
2018-11-02T06:56:45.513Z,332.00
2018-11-02T06:57:45.482Z,332.00
2018-11-02T06:58:45.482Z,336.00
2018-11-02T06:59:45.531Z,328.00
2018-11-02T07:00:45.462Z,332.00
2018-11-02T07:01:45.438Z,336.00
2018-11-02T07:02:45.441Z,316.00
2018-11-02T07:03:45.418Z,320.00
2018-11-02T07:04:45.405Z,332.00
2018-11-02T07:05:45.434Z,340.00
2018-11-02T07:06:45.381Z,356.00
2018-11-02T07:07:45.517Z,364.00
2018-11-02T07:08:45.361Z,372.00
2018-11-02T07:09:45.347Z,388.00
2018-11-02T07:10:45.439Z,444.00
2018-11-02T07:11:45.325Z,452.00
2018-11-02T07:12:45.330Z,460.00
2018-11-02T07:13:45.305Z,468.00
2018-11-02T07:14:45.296Z,476.00
2018-11-02T07:15:45.286Z,484.00
2018-11-02T07:16:45.270Z,492.00
2018-11-02T07:17:45.304Z,500.00
2018-11-02T07:18:45.253Z,508.00
2018-11-02T07:19:45.244Z,516.00
2018-11-02T07:20:45.257Z,524.00
2018-11-02T07:21:45.220Z,524.00
2018-11-02T07:22:45.214Z,532.00
2018-11-02T07:23:45.202Z,540.00
2018-11-02T07:24:45.187Z,544.00
2018-11-02T07:25:45.172Z,552.00
2018-11-02T07:26:45.159Z,556.00
2018-11-02T07:27:45.167Z,564.00
2018-11-02T07:28:45.136Z,572.00
2018-11-02T07:29:45.125Z,580.00
2018-11-02T07:30:45.148Z,588.00
2018-11-02T07:31:45.125Z,592.00
2018-11-02T07:32:45.131Z,596.00
2018-11-02T07:33:45.087Z,604.00
2018-11-02T07:34:45.072Z,608.00
2018-11-02T07:35:45.061Z,616.00
2018-11-02T07:36:45.061Z,624.00
2018-11-02T07:37:45.057Z,632.00
2018-11-02T07:38:45.028Z,640.00
2018-11-02T07:39:45.016Z,644.00
2018-11-02T07:40:45.007Z,652.00
2018-11-02T07:41:44.992Z,656.00
2018-11-02T07:42:44.995Z,664.00
2018-11-02T07:43:44.978Z,672.00
2018-11-02T07:44:44.961Z,684.00
2018-11-02T07:45:44.947Z,688.00
2018-11-02T07:46:44.937Z,696.00
2018-11-02T07:47:45.012Z,704.00
2018-11-02T07:48:44.955Z,712.00
2018-11-02T07:49:45.031Z,716.00
2018-11-02T07:50:44.892Z,720.00
2018-11-02T07:51:44.880Z,728.00
2018-11-02T07:52:44.884Z,732.00
2018-11-02T07:53:44.861Z,740.00
2018-11-02T07:54:44.849Z,744.00
2018-11-02T07:55:44.843Z,752.00
2018-11-02T07:56:44.854Z,756.00
2018-11-02T07:57:44.889Z,768.00
2018-11-02T07:58:44.858Z,772.00
2018-11-02T07:59:44.839Z,780.00
2018-11-02T08:00:44.803Z,784.00
2018-11-02T08:01:44.842Z,792.00
2018-11-02T08:02:44.868Z,796.00
2018-11-02T08:03:44.750Z,808.00
2018-11-02T08:04:44.746Z,816.00
2018-11-02T08:05:44.738Z,820.00
2018-11-02T08:06:44.732Z,828.00
2018-11-02T08:07:44.704Z,836.00
2018-11-02T08:08:44.705Z,840.00
2018-11-02T08:09:44.683Z,852.00
2018-11-02T08:10:44.671Z,856.00
2018-11-02T08:11:44.661Z,860.00
2018-11-02T08:12:44.651Z,852.00
2018-11-02T08:13:44.651Z,872.00
2018-11-02T08:14:44.627Z,872.00
2018-11-02T08:15:44.623Z,876.00
2018-11-02T08:16:44.613Z,884.00
2018-11-02T08:17:44.640Z,888.00
2018-11-02T08:18:44.619Z,896.00
2018-11-02T08:19:44.574Z,904.00
2018-11-02T08:20:44.561Z,908.00
2018-11-02T08:21:44.554Z,912.00
2018-11-02T08:22:44.574Z,924.00
2018-11-02T08:23:44.542Z,924.00
2018-11-02T08:24:44.521Z,932.00
2018-11-02T08:25:44.508Z,944.00
2018-11-02T08:26:44.508Z,952.00
2018-11-02T08:27:44.491Z,964.00
2018-11-02T08:28:44.498Z,980.00
2018-11-02T08:29:44.494Z,1000.00
2018-11-02T08:30:44.453Z,1024.00
2018-11-02T08:31:44.440Z,1052.00
2018-11-02T08:32:44.428Z,1100.00
2018-11-02T08:33:44.427Z,1148.00
2018-11-02T08:34:44.443Z,1236.00
2018-11-02T08:35:44.394Z,1404.00
2018-11-02T08:36:44.382Z,1704.00
2018-11-02T08:37:44.374Z,2268.00
2018-11-02T08:38:44.397Z,3440.00
2018-11-02T08:39:44.353Z,5032.00
2018-11-02T08:40:44.338Z,5388.00
2018-11-02T08:41:44.326Z,5156.00
2018-11-02T08:42:44.315Z,4804.00
2018-11-02T08:43:44.307Z,3824.00
2018-11-02T08:44:44.328Z,2704.00
2018-11-02T08:45:44.310Z,1824.00
2018-11-02T08:46:44.270Z,1404.00
2018-11-02T08:47:44.259Z,1356.00
2018-11-02T08:48:44.249Z,1448.00
2018-11-02T08:49:44.249Z,1604.00
2018-11-02T08:50:44.257Z,1876.00
2018-11-02T08:51:44.226Z,2720.00
2018-11-02T08:52:44.206Z,4396.00
2018-11-02T08:53:44.193Z,5248.00
2018-11-02T08:54:44.194Z,4648.00
2018-11-02T08:55:44.172Z,3468.00
2018-11-02T08:56:44.161Z,3180.00
2018-11-02T08:57:44.263Z,2764.00
2018-11-02T08:58:44.449Z,2828.00
2018-11-02T08:59:44.178Z,2660.00
2018-11-02T09:00:44.122Z,2528.00
2018-11-02T09:01:44.118Z,3532.00
2018-11-02T09:02:44.106Z,3804.00
2018-11-02T09:03:44.083Z,3812.00
2018-11-02T09:04:44.090Z,5184.00
2018-11-02T09:05:44.063Z,3448.00
2018-11-02T09:06:44.051Z,2504.00
2018-11-02T09:07:44.060Z,2028.00
2018-11-02T09:08:44.028Z,1748.00
2018-11-02T09:09:44.037Z,2024.00
2018-11-02T09:10:44.005Z,2672.00
2018-11-02T09:11:43.992Z,3168.00
2018-11-02T09:12:43.993Z,3356.00
2018-11-02T09:13:44.055Z,2740.00
2018-11-02T09:14:44.000Z,2568.00
2018-11-02T09:15:43.984Z,2960.00
2018-11-02T09:16:43.939Z,3384.00
2018-11-02T09:17:43.931Z,3792.00
2018-11-02T09:18:43.915Z,4520.00
2018-11-02T09:19:43.924Z,4952.00
2018-11-02T09:20:43.900Z,4432.00
2018-11-02T09:21:43.923Z,3588.00
2018-11-02T09:22:43.890Z,2232.00
2018-11-02T09:23:43.859Z,1772.00
2018-11-02T09:24:43.857Z,1776.00
2018-11-02T09:25:43.841Z,1800.00
2018-11-02T09:26:43.829Z,1792.00
2018-11-02T09:27:43.881Z,2376.00
2018-11-02T09:28:43.804Z,2888.00
2018-11-02T09:29:43.821Z,2212.00
2018-11-02T09:30:43.807Z,1620.00
2018-11-02T09:31:43.792Z,1484.00
2018-11-02T09:32:43.763Z,1732.00
2018-11-02T09:33:43.750Z,1660.00
2018-11-02T09:34:43.752Z,1908.00
2018-11-02T09:35:43.750Z,2360.00
2018-11-02T09:36:43.723Z,2872.00
2018-11-02T09:37:43.707Z,4744.00
2018-11-02T09:38:43.703Z,6672.00
2018-11-02T09:39:43.694Z,6804.00
2018-11-02T09:40:43.672Z,4840.00
2018-11-02T09:41:43.667Z,2368.00
2018-11-02T09:42:43.803Z,1700.00
2018-11-02T09:43:43.640Z,3080.00
2018-11-02T09:44:43.635Z,3688.00
2018-11-02T09:45:43.615Z,2892.00
2018-11-02T09:46:43.606Z,2972.00
2018-11-02T09:47:43.617Z,3568.00
2018-11-02T09:48:43.581Z,2556.00
2018-11-02T09:49:43.586Z,2028.00
2018-11-02T09:50:43.582Z,1964.00
2018-11-02T09:51:43.767Z,1656.00
2018-11-02T09:52:43.565Z,1356.00
2018-11-02T09:53:43.523Z,1200.00
2018-11-02T09:54:43.545Z,1160.00
2018-11-02T09:55:43.511Z,1276.00
2018-11-02T09:56:43.490Z,1904.00
2018-11-02T09:57:43.553Z,2984.00
2018-11-02T09:58:43.488Z,3920.00
2018-11-02T09:59:43.523Z,5508.00
2018-11-02T10:00:43.444Z,7212.00
2018-11-02T10:01:43.443Z,8152.00
2018-11-02T10:02:43.424Z,7756.00
2018-11-02T10:03:43.412Z,6540.00
2018-11-02T10:04:43.429Z,4300.00
2018-11-02T10:05:43.415Z,3216.00
2018-11-02T10:06:43.379Z,3380.00
2018-11-02T10:07:43.367Z,3068.00
2018-11-02T10:08:43.382Z,3796.00
2018-11-02T10:09:43.394Z,4020.00
2018-11-02T10:10:43.340Z,2540.00
2018-11-02T10:11:43.325Z,1628.00
2018-11-02T10:12:43.318Z,1472.00
2018-11-02T10:13:43.300Z,1416.00
2018-11-02T10:14:43.322Z,1412.00
2018-11-02T10:15:43.309Z,1324.00
2018-11-02T10:16:43.276Z,1520.00
2018-11-02T10:17:43.257Z,1432.00
2018-11-02T10:18:43.246Z,1320.00
2018-11-02T10:19:43.233Z,1256.00
2018-11-02T10:20:43.251Z,1216.00
2018-11-02T10:21:43.213Z,1312.00
2018-11-02T10:22:43.201Z,1400.00
2018-11-02T10:23:43.244Z,1296.00
2018-11-02T10:24:43.178Z,1468.00
2018-11-02T10:25:43.183Z,1704.00
2018-11-02T10:26:43.154Z,2120.00
2018-11-02T10:27:43.146Z,1932.00
2018-11-02T10:28:43.138Z,1332.00
2018-11-02T10:29:43.121Z,1336.00
2018-11-02T10:30:43.132Z,1600.00
2018-11-02T10:31:43.103Z,1700.00
2018-11-02T10:32:43.092Z,1428.00
2018-11-02T10:33:43.080Z,1384.00
2018-11-02T10:34:43.106Z,1268.00
2018-11-02T10:35:43.292Z,1172.00
2018-11-02T10:36:43.054Z,1144.00
2018-11-02T10:37:43.036Z,1144.00
2018-11-02T10:38:43.031Z,1124.00
2018-11-02T10:39:43.125Z,1120.00
2018-11-02T10:40:43.010Z,1124.00
2018-11-02T10:41:42.993Z,1120.00
2018-11-02T10:42:43.002Z,1124.00
2018-11-02T10:43:42.976Z,1132.00
2018-11-02T10:44:43.006Z,1140.00
2018-11-02T10:45:42.978Z,1120.00
2018-11-02T10:46:42.940Z,1132.00
2018-11-02T10:47:42.956Z,1136.00
2018-11-02T10:48:42.911Z,1136.00
2018-11-02T10:49:42.920Z,1132.00
2018-11-02T10:50:42.908Z,1124.00
2018-11-02T10:51:42.908Z,1120.00
2018-11-02T10:52:42.868Z,1116.00
2018-11-02T10:53:42.869Z,1116.00
2018-11-02T10:54:43.005Z,1108.00
2018-11-02T10:55:42.841Z,1112.00
2018-11-02T10:56:42.869Z,1112.00
2018-11-02T10:57:42.876Z,1120.00
2018-11-02T10:58:42.799Z,1120.00
2018-11-02T10:59:42.787Z,1124.00
2018-11-02T11:00:42.843Z,1124.00
2018-11-02T11:01:42.770Z,1128.00
2018-11-02T11:02:42.753Z,1120.00
2018-11-02T11:03:42.741Z,1120.00
2018-11-02T11:04:42.753Z,1116.00
2018-11-02T11:05:42.732Z,1120.00
2018-11-02T11:06:42.714Z,1116.00
2018-11-02T11:07:42.722Z,1112.00
2018-11-02T11:08:42.684Z,1132.00
2018-11-02T11:09:42.672Z,1300.00
2018-11-02T11:10:42.679Z,1488.00
2018-11-02T11:11:42.775Z,1504.00
2018-11-02T11:12:42.820Z,1352.00
2018-11-02T11:13:43.113Z,1276.00
2018-11-02T11:14:42.639Z,1268.00
2018-11-02T11:15:42.620Z,1236.00
2018-11-02T11:16:42.599Z,1180.00
2018-11-02T11:17:42.584Z,1128.00
2018-11-02T11:18:42.575Z,1128.00
2018-11-02T11:19:42.563Z,1168.00
2018-11-02T11:20:42.567Z,1140.00
2018-11-02T11:21:42.544Z,1128.00
2018-11-02T11:22:42.525Z,1168.00
2018-11-02T11:23:42.547Z,1232.00
2018-11-02T11:24:42.507Z,1188.00
2018-11-02T11:25:42.505Z,1160.00
2018-11-02T11:26:42.480Z,1232.00
2018-11-02T11:27:42.469Z,1268.00
2018-11-02T11:28:42.491Z,1168.00
2018-11-02T11:29:42.445Z,1120.00
2018-11-02T11:30:42.471Z,1108.00
2018-11-02T11:31:42.428Z,1108.00
2018-11-02T11:32:42.416Z,1108.00
2018-11-02T11:33:42.414Z,1100.00
2018-11-02T11:34:42.428Z,1104.00
2018-11-02T11:35:42.435Z,1128.00
2018-11-02T11:36:42.376Z,1116.00
2018-11-02T11:37:42.354Z,1104.00
2018-11-02T11:38:42.342Z,1112.00
2018-11-02T11:39:42.414Z,1112.00
2018-11-02T11:40:42.343Z,1136.00
2018-11-02T11:41:42.324Z,1128.00
2018-11-02T11:42:42.307Z,1164.00
2018-11-02T11:43:42.286Z,1148.00
2018-11-02T11:44:42.280Z,1156.00
2018-11-02T11:45:42.263Z,1148.00
2018-11-02T11:46:42.269Z,1132.00
2018-11-02T11:47:42.240Z,1108.00
2018-11-02T11:48:42.352Z,1108.00
2018-11-02T11:49:42.217Z,1108.00
2018-11-02T11:50:42.208Z,1096.00
2018-11-02T11:51:42.205Z,1100.00
2018-11-02T11:52:42.187Z,1088.00
2018-11-02T11:53:42.172Z,1088.00
2018-11-02T11:54:42.254Z,1092.00
2018-11-02T11:55:42.153Z,1088.00
2018-11-02T11:56:42.149Z,1100.00
2018-11-02T11:57:42.125Z,1128.00
2018-11-02T11:58:42.118Z,1132.00
2018-11-02T11:59:42.105Z,1116.00
2018-11-02T12:00:42.094Z,1080.00
2018-11-02T12:01:42.093Z,1084.00
2018-11-02T12:02:42.072Z,1124.00
2018-11-02T12:03:42.068Z,1240.00
2018-11-02T12:04:42.109Z,1308.00
2018-11-02T12:05:42.034Z,1276.00
2018-11-02T12:06:42.045Z,1224.00
2018-11-02T12:07:42.013Z,1320.00
2018-11-02T12:08:42.004Z,1244.00
2018-11-02T12:09:42.009Z,1160.00
2018-11-02T12:10:41.991Z,1164.00
2018-11-02T12:11:41.970Z,1232.00
2018-11-02T12:12:42.004Z,1260.00
2018-11-02T12:13:41.947Z,1316.00
2018-11-02T12:14:41.936Z,1308.00
2018-11-02T12:15:41.957Z,1388.00
2018-11-02T12:16:41.913Z,1460.00
2018-11-02T12:17:41.920Z,1500.00
2018-11-02T12:18:41.892Z,1324.00
2018-11-02T12:19:41.884Z,1212.00
2018-11-02T12:20:41.870Z,1128.00
2018-11-02T12:21:41.900Z,1116.00
2018-11-02T12:22:41.865Z,1384.00
2018-11-02T12:23:41.834Z,1636.00
2018-11-02T12:24:41.823Z,1944.00
2018-11-02T12:25:41.813Z,2220.00
2018-11-02T12:26:41.807Z,2392.00
2018-11-02T12:27:41.853Z,2404.00
2018-11-02T12:28:41.819Z,2536.00
2018-11-02T12:29:41.768Z,2496.00
2018-11-02T12:30:41.826Z,2428.00
2018-11-02T12:31:41.774Z,2328.00
2018-11-02T12:32:41.753Z,2260.00
2018-11-02T12:33:41.730Z,2108.00
2018-11-02T12:34:41.712Z,1768.00
2018-11-02T12:35:41.706Z,1504.00
2018-11-02T12:36:41.693Z,1312.00
2018-11-02T12:37:41.688Z,1256.00
2018-11-02T12:38:41.668Z,1236.00
2018-11-02T12:39:41.685Z,1240.00
2018-11-02T12:40:41.647Z,1216.00
2018-11-02T12:41:41.637Z,1180.00
2018-11-02T12:42:41.636Z,1100.00
2018-11-02T12:43:41.722Z,1128.00
2018-11-02T12:44:41.605Z,1076.00